sensor_id;sensor_type;location;lat;lon;timestamp;temperature;humidity
13686;DHT22;6915;48.296;8.874;2022-09-13T00:01:59;12.80;99.90
13686;DHT22;6915;48.296;8.874;2022-09-13T00:04:26;12.70;99.90
13686;DHT22;6915;48.296;8.874;2022-09-13T00:06:53;12.60;99.90
13686;DHT22;6915;48.296;8.874;2022-09-13T00:09:20;12.50;99.90
13686;DHT22;6915;48.296;8.874;2022-09-13T00:11:48;12.20;99.90
13686;DHT22;6915;48.296;8.874;2022-09-13T00:14:17;12.10;99.90
13686;DHT22;6915;48.296;8.874;2022-09-13T00:16:43;12.00;99.90
13686;DHT22;6915;48.296;8.874;2022-09-13T00:19:10;12.00;99.90
13686;DHT22;6915;48.296;8.874;2022-09-13T00:21:37;11.80;99.90
13686;DHT22;6915;48.296;8.874;2022-09-13T00:24:04;11.80;99.90
13686;DHT22;6915;48.296;8.874;2022-09-13T00:26:31;11.80;99.90
13686;DHT22;6915;48.296;8.874;2022-09-13T00:28:59;12.00;99.90
13686;DHT22;6915;48.296;8.874;2022-09-13T00:31:27;12.00;99.90
13686;DHT22;6915;48.296;8.874;2022-09-13T00:33:54;12.00;99.90
13686;DHT22;6915;48.296;8.874;2022-09-13T00:36:23;12.10;99.90
13686;DHT22;6915;48.296;8.874;2022-09-13T00:38:50;12.20;99.90
13686;DHT22;6915;48.296;8.874;2022-09-13T00:41:18;12.30;99.90
13686;DHT22;6915;48.296;8.874;2022-09-13T00:43:48;12.50;99.90
13686;DHT22;6915;48.296;8.874;2022-09-13T00:46:21;12.60;99.90
13686;DHT22;6915;48.296;8.874;2022-09-13T00:48:53;12.80;99.90
13686;DHT22;6915;48.296;8.874;2022-09-13T00:51:21;12.90;99.90
13686;DHT22;6915;48.296;8.874;2022-09-13T00:53:51;12.80;99.90
13686;DHT22;6915;48.296;8.874;2022-09-13T00:56:24;12.60;99.90
13686;DHT22;6915;48.296;8.874;2022-09-13T00:58:55;12.30;99.90
13686;DHT22;6915;48.296;8.874;2022-09-13T01:01:28;12.50;99.90
13686;DHT22;6915;48.296;8.874;2022-09-13T01:03:57;12.40;99.90
13686;DHT22;6915;48.296;8.874;2022-09-13T01:06:26;12.40;99.90
13686;DHT22;6915;48.296;8.874;2022-09-13T01:08:55;12.60;99.90
13686;DHT22;6915;48.296;8.874;2022-09-13T01:11:31;12.60;99.90
13686;DHT22;6915;48.296;8.874;2022-09-13T01:14:02;12.40;99.90
13686;DHT22;6915;48.296;8.874;2022-09-13T01:16:31;12.30;99.90
13686;DHT22;6915;48.296;8.874;2022-09-13T01:18:58;12.20;99.90
13686;DHT22;6915;48.296;8.874;2022-09-13T01:22:01;12.20;99.90
13686;DHT22;6915;48.296;8.874;2022-09-13T01:27:51;12.20;99.90
13686;DHT22;6915;48.296;8.874;2022-09-13T01:30:26;12.00;99.90
13686;DHT22;6915;48.296;8.874;2022-09-13T01:33:20;11.90;99.90
13686;DHT22;6915;48.296;8.874;2022-09-13T01:36:03;11.70;99.90
13686;DHT22;6915;48.296;8.874;2022-09-13T01:38:54;11.70;99.90
13686;DHT22;6915;48.296;8.874;2022-09-13T01:41:44;11.50;99.90
13686;DHT22;6915;48.296;8.874;2022-09-13T01:44:23;11.40;99.90
13686;DHT22;6915;48.296;8.874;2022-09-13T01:46:59;11.40;99.90
13686;DHT22;6915;48.296;8.874;2022-09-13T01:49:32;11.50;99.90
13686;DHT22;6915;48.296;8.874;2022-09-13T01:52:08;11.40;99.90
13686;DHT22;6915;48.296;8.874;2022-09-13T01:54:42;11.40;99.90
13686;DHT22;6915;48.296;8.874;2022-09-13T01:57:15;11.40;99.90
13686;DHT22;6915;48.296;8.874;2022-09-13T01:59:48;11.30;99.90
13686;DHT22;6915;48.296;8.874;2022-09-13T02:02:19;11.20;99.90
13686;DHT22;6915;48.296;8.874;2022-09-13T02:04:51;11.10;99.90
13686;DHT22;6915;48.296;8.874;2022-09-13T02:07:21;11.00;99.90
13686;DHT22;6915;48.296;8.874;2022-09-13T02:09:53;11.20;99.90
13686;DHT22;6915;48.296;8.874;2022-09-13T02:12:23;11.10;99.90
13686;DHT22;6915;48.296;8.874;2022-09-13T02:14:55;10.90;99.90
13686;DHT22;6915;48.296;8.874;2022-09-13T02:17:27;10.90;99.90
13686;DHT22;6915;48.296;8.874;2022-09-13T02:19:58;10.90;99.90
13686;DHT22;6915;48.296;8.874;2022-09-13T02:22:29;10.90;99.90
13686;DHT22;6915;48.296;8.874;2022-09-13T02:25:00;11.00;99.90
13686;DHT22;6915;48.296;8.874;2022-09-13T02:27:32;11.00;99.90
13686;DHT22;6915;48.296;8.874;2022-09-13T02:30:03;11.00;99.90
13686;DHT22;6915;48.296;8.874;2022-09-13T02:32:35;10.90;99.90
13686;DHT22;6915;48.296;8.874;2022-09-13T02:35:06;10.70;99.90
13686;DHT22;6915;48.296;8.874;2022-09-13T02:37:39;10.70;99.90
13686;DHT22;6915;48.296;8.874;2022-09-13T02:40:11;10.70;99.90
13686;DHT22;6915;48.296;8.874;2022-09-13T02:42:42;10.70;99.90
13686;DHT22;6915;48.296;8.874;2022-09-13T02:45:11;10.80;99.90
13686;DHT22;6915;48.296;8.874;2022-09-13T02:47:44;10.60;99.90
13686;DHT22;6915;48.296;8.874;2022-09-13T02:50:36;10.50;99.90
13686;DHT22;6915;48.296;8.874;2022-09-13T02:53:13;10.60;99.90
13686;DHT22;6915;48.296;8.874;2022-09-13T02:55:52;10.60;99.90
13686;DHT22;6915;48.296;8.874;2022-09-13T02:58:24;10.70;99.90
13686;DHT22;6915;48.296;8.874;2022-09-13T03:00:52;10.70;99.90
13686;DHT22;6915;48.296;8.874;2022-09-13T03:03:21;10.70;99.90
13686;DHT22;6915;48.296;8.874;2022-09-13T03:05:48;10.70;99.90
13686;DHT22;6915;48.296;8.874;2022-09-13T03:08:16;10.70;99.90
13686;DHT22;6915;48.296;8.874;2022-09-13T03:10:54;10.60;99.90
13686;DHT22;6915;48.296;8.874;2022-09-13T03:16:28;10.60;99.90
13686;DHT22;6915;48.296;8.874;2022-09-13T03:19:13;10.70;99.90
13686;DHT22;6915;48.296;8.874;2022-09-13T03:21:54;10.60;99.90
13686;DHT22;6915;48.296;8.874;2022-09-13T03:24:30;10.70;99.90
13686;DHT22;6915;48.296;8.874;2022-09-13T03:27:08;10.60;99.90
13686;DHT22;6915;48.296;8.874;2022-09-13T03:29:44;10.70;99.90
13686;DHT22;6915;48.296;8.874;2022-09-13T03:32:22;10.60;99.90
13686;DHT22;6915;48.296;8.874;2022-09-13T03:34:56;10.60;99.90
13686;DHT22;6915;48.296;8.874;2022-09-13T03:37:32;10.70;99.90
13686;DHT22;6915;48.296;8.874;2022-09-13T03:40:06;10.60;99.90
13686;DHT22;6915;48.296;8.874;2022-09-13T03:42:40;10.60;99.90
13686;DHT22;6915;48.296;8.874;2022-09-13T03:45:08;10.60;99.90
13686;DHT22;6915;48.296;8.874;2022-09-13T03:47:39;10.50;99.90
13686;DHT22;6915;48.296;8.874;2022-09-13T03:50:09;10.50;99.90
13686;DHT22;6915;48.296;8.874;2022-09-13T03:52:40;10.40;99.90
13686;DHT22;6915;48.296;8.874;2022-09-13T03:55:08;10.50;99.90
13686;DHT22;6915;48.296;8.874;2022-09-13T03:57:36;10.40;99.90
13686;DHT22;6915;48.296;8.874;2022-09-13T04:00:04;10.50;99.90
13686;DHT22;6915;48.296;8.874;2022-09-13T04:02:31;10.40;99.90
13686;DHT22;6915;48.296;8.874;2022-09-13T04:04:58;10.50;99.90
13686;DHT22;6915;48.296;8.874;2022-09-13T04:07:27;10.30;99.90
13686;DHT22;6915;48.296;8.874;2022-09-13T04:09:54;10.30;99.90
13686;DHT22;6915;48.296;8.874;2022-09-13T04:12:21;10.30;99.90
13686;DHT22;6915;48.296;8.874;2022-09-13T04:14:48;10.30;99.90
13686;DHT22;6915;48.296;8.874;2022-09-13T04:17:15;10.40;99.90
13686;DHT22;6915;48.296;8.874;2022-09-13T04:19:43;10.40;99.90
13686;DHT22;6915;48.296;8.874;2022-09-13T04:22:11;10.30;99.90
13686;DHT22;6915;48.296;8.874;2022-09-13T04:24:40;10.40;99.90
13686;DHT22;6915;48.296;8.874;2022-09-13T04:27:08;10.20;99.90
13686;DHT22;6915;48.296;8.874;2022-09-13T04:29:36;10.30;99.90
13686;DHT22;6915;48.296;8.874;2022-09-13T04:32:03;10.30;99.90
13686;DHT22;6915;48.296;8.874;2022-09-13T04:34:30;10.30;99.90
13686;DHT22;6915;48.296;8.874;2022-09-13T04:36:57;10.40;99.90
13686;DHT22;6915;48.296;8.874;2022-09-13T04:39:24;10.30;99.90
13686;DHT22;6915;48.296;8.874;2022-09-13T04:41:52;10.30;99.90
13686;DHT22;6915;48.296;8.874;2022-09-13T04:44:20;10.30;99.90
13686;DHT22;6915;48.296;8.874;2022-09-13T04:46:48;10.30;99.90
13686;DHT22;6915;48.296;8.874;2022-09-13T04:49:16;10.30;99.90
13686;DHT22;6915;48.296;8.874;2022-09-13T04:51:44;10.30;99.90
13686;DHT22;6915;48.296;8.874;2022-09-13T04:54:11;10.10;99.90
13686;DHT22;6915;48.296;8.874;2022-09-13T04:56:39;10.10;99.90
13686;DHT22;6915;48.296;8.874;2022-09-13T04:59:08;10.10;99.90
13686;DHT22;6915;48.296;8.874;2022-09-13T05:01:36;10.20;99.90
13686;DHT22;6915;48.296;8.874;2022-09-13T05:04:05;10.20;99.90
13686;DHT22;6915;48.296;8.874;2022-09-13T05:06:33;10.20;99.90
13686;DHT22;6915;48.296;8.874;2022-09-13T05:09:00;10.20;99.90
13686;DHT22;6915;48.296;8.874;2022-09-13T05:11:28;10.20;99.90
13686;DHT22;6915;48.296;8.874;2022-09-13T05:13:57;10.30;99.90
13686;DHT22;6915;48.296;8.874;2022-09-13T05:16:27;10.30;99.90
13686;DHT22;6915;48.296;8.874;2022-09-13T05:18:54;10.20;99.90
13686;DHT22;6915;48.296;8.874;2022-09-13T05:21:21;10.30;99.90
13686;DHT22;6915;48.296;8.874;2022-09-13T05:23:49;10.30;99.90
13686;DHT22;6915;48.296;8.874;2022-09-13T05:26:17;10.50;99.90
13686;DHT22;6915;48.296;8.874;2022-09-13T05:28:44;10.30;99.90
13686;DHT22;6915;48.296;8.874;2022-09-13T05:31:14;10.40;99.90
13686;DHT22;6915;48.296;8.874;2022-09-13T05:33:44;10.40;99.90
13686;DHT22;6915;48.296;8.874;2022-09-13T05:36:12;10.40;99.90
13686;DHT22;6915;48.296;8.874;2022-09-13T05:38:39;10.50;99.90
13686;DHT22;6915;48.296;8.874;2022-09-13T05:41:06;10.60;99.90
13686;DHT22;6915;48.296;8.874;2022-09-13T05:43:34;10.60;99.90
13686;DHT22;6915;48.296;8.874;2022-09-13T05:46:03;10.70;99.90
13686;DHT22;6915;48.296;8.874;2022-09-13T05:48:30;10.80;99.90
13686;DHT22;6915;48.296;8.874;2022-09-13T05:51:05;10.80;99.90
13686;DHT22;6915;48.296;8.874;2022-09-13T05:53:32;10.90;99.90
13686;DHT22;6915;48.296;8.874;2022-09-13T05:56:00;10.90;99.90
13686;DHT22;6915;48.296;8.874;2022-09-13T05:58:27;11.00;99.90
13686;DHT22;6915;48.296;8.874;2022-09-13T06:00:54;11.00;99.90
13686;DHT22;6915;48.296;8.874;2022-09-13T06:03:22;11.30;99.90
13686;DHT22;6915;48.296;8.874;2022-09-13T06:05:53;11.70;99.90
13686;DHT22;6915;48.296;8.874;2022-09-13T06:08:21;12.40;99.90
13686;DHT22;6915;48.296;8.874;2022-09-13T06:10:53;12.60;99.90
13686;DHT22;6915;48.296;8.874;2022-09-13T06:13:21;12.50;99.90
13686;DHT22;6915;48.296;8.874;2022-09-13T06:15:48;12.30;99.90
13686;DHT22;6915;48.296;8.874;2022-09-13T06:18:15;12.30;99.90
13686;DHT22;6915;48.296;8.874;2022-09-13T06:20:42;12.60;99.90
13686;DHT22;6915;48.296;8.874;2022-09-13T06:23:09;13.10;99.90
13686;DHT22;6915;48.296;8.874;2022-09-13T06:25:38;13.70;99.90
13686;DHT22;6915;48.296;8.874;2022-09-13T06:28:05;13.90;99.90
13686;DHT22;6915;48.296;8.874;2022-09-13T06:30:32;14.20;99.90
13686;DHT22;6915;48.296;8.874;2022-09-13T06:32:59;14.40;99.90
13686;DHT22;6915;48.296;8.874;2022-09-13T06:35:26;14.80;1.00
13686;DHT22;6915;48.296;8.874;2022-09-13T06:37:54;14.90;31.80
13686;DHT22;6915;48.296;8.874;2022-09-13T06:40:23;15.00;1.00
13686;DHT22;6915;48.296;8.874;2022-09-13T06:42:51;15.20;1.40
13686;DHT22;6915;48.296;8.874;2022-09-13T06:45:18;15.30;91.00
13686;DHT22;6915;48.296;8.874;2022-09-13T06:47:46;15.40;1.00
13686;DHT22;6915;48.296;8.874;2022-09-13T06:50:13;15.50;4.90
13686;DHT22;6915;48.296;8.874;2022-09-13T06:52:40;15.50;42.10
13686;DHT22;6915;48.296;8.874;2022-09-13T06:55:07;15.60;1.00
13686;DHT22;6915;48.296;8.874;2022-09-13T06:57:35;15.80;1.00
13686;DHT22;6915;48.296;8.874;2022-09-13T07:00:04;16.10;99.90
13686;DHT22;6915;48.296;8.874;2022-09-13T07:02:31;16.40;99.90
13686;DHT22;6915;48.296;8.874;2022-09-13T07:04:58;16.60;99.90
13686;DHT22;6915;48.296;8.874;2022-09-13T07:07:25;16.90;1.00
13686;DHT22;6915;48.296;8.874;2022-09-13T07:09:52;17.10;99.90
13686;DHT22;6915;48.296;8.874;2022-09-13T07:12:19;17.30;99.90
13686;DHT22;6915;48.296;8.874;2022-09-13T07:14:46;17.50;99.90
13686;DHT22;6915;48.296;8.874;2022-09-13T07:17:15;17.60;1.00
13686;DHT22;6915;48.296;8.874;2022-09-13T07:19:42;17.60;1.00
13686;DHT22;6915;48.296;8.874;2022-09-13T07:22:09;17.80;1.00
13686;DHT22;6915;48.296;8.874;2022-09-13T07:24:36;17.90;1.00
13686;DHT22;6915;48.296;8.874;2022-09-13T07:27:03;18.10;1.00
13686;DHT22;6915;48.296;8.874;2022-09-13T07:29:31;18.30;99.90
13686;DHT22;6915;48.296;8.874;2022-09-13T07:31:58;18.50;1.00
13686;DHT22;6915;48.296;8.874;2022-09-13T07:34:27;18.60;75.10
13686;DHT22;6915;48.296;8.874;2022-09-13T07:36:54;18.70;99.90
13686;DHT22;6915;48.296;8.874;2022-09-13T07:39:21;18.90;99.90
13686;DHT22;6915;48.296;8.874;2022-09-13T07:41:49;19.00;1.00
13686;DHT22;6915;48.296;8.874;2022-09-13T07:44:16;19.10;1.00
13686;DHT22;6915;48.296;8.874;2022-09-13T07:46:44;19.50;1.00
13686;DHT22;6915;48.296;8.874;2022-09-13T07:49:13;19.70;1.00
13686;DHT22;6915;48.296;8.874;2022-09-13T07:51:42;19.90;99.90
13686;DHT22;6915;48.296;8.874;2022-09-13T07:54:11;19.80;99.90
13686;DHT22;6915;48.296;8.874;2022-09-13T07:56:39;19.90;1.00
13686;DHT22;6915;48.296;8.874;2022-09-13T07:59:11;20.10;1.00
13686;DHT22;6915;48.296;8.874;2022-09-13T08:01:39;20.30;1.00
13686;DHT22;6915;48.296;8.874;2022-09-13T08:04:09;20.50;99.90
13686;DHT22;6915;48.296;8.874;2022-09-13T08:06:37;20.60;99.90
13686;DHT22;6915;48.296;8.874;2022-09-13T08:09:07;20.70;1.00
13686;DHT22;6915;48.296;8.874;2022-09-13T08:11:36;20.80;1.00
13686;DHT22;6915;48.296;8.874;2022-09-13T08:14:04;20.90;1.00
13686;DHT22;6915;48.296;8.874;2022-09-13T08:16:31;21.10;1.00
13686;DHT22;6915;48.296;8.874;2022-09-13T08:19:00;21.10;1.00
13686;DHT22;6915;48.296;8.874;2022-09-13T08:21:31;21.50;1.00
13686;DHT22;6915;48.296;8.874;2022-09-13T08:23:59;21.70;1.00
13686;DHT22;6915;48.296;8.874;2022-09-13T08:26:29;21.90;1.00
13686;DHT22;6915;48.296;8.874;2022-09-13T08:28:57;22.20;1.00
13686;DHT22;6915;48.296;8.874;2022-09-13T08:31:26;22.40;99.90
13686;DHT22;6915;48.296;8.874;2022-09-13T08:33:54;22.50;99.90
13686;DHT22;6915;48.296;8.874;2022-09-13T08:36:22;22.70;1.00
13686;DHT22;6915;48.296;8.874;2022-09-13T08:38:51;22.90;1.00
13686;DHT22;6915;48.296;8.874;2022-09-13T08:41:53;23.10;99.90
13686;DHT22;6915;48.296;8.874;2022-09-13T08:44:27;23.40;1.00
13686;DHT22;6915;48.296;8.874;2022-09-13T08:47:02;23.60;99.90
13686;DHT22;6915;48.296;8.874;2022-09-13T08:49:32;23.70;1.00
13686;DHT22;6915;48.296;8.874;2022-09-13T08:52:10;23.80;1.00
13686;DHT22;6915;48.296;8.874;2022-09-13T08:54:42;23.90;1.00
13686;DHT22;6915;48.296;8.874;2022-09-13T08:57:16;24.10;99.90
13686;DHT22;6915;48.296;8.874;2022-09-13T08:59:52;24.20;1.00
13686;DHT22;6915;48.296;8.874;2022-09-13T09:02:38;24.40;1.00
13686;DHT22;6915;48.296;8.874;2022-09-13T09:05:15;24.50;1.00
13686;DHT22;6915;48.296;8.874;2022-09-13T09:07:45;24.80;1.00
13686;DHT22;6915;48.296;8.874;2022-09-13T09:10:16;25.00;1.00
13686;DHT22;6915;48.296;8.874;2022-09-13T09:12:48;25.00;99.90
13686;DHT22;6915;48.296;8.874;2022-09-13T09:15:19;25.10;1.00
13686;DHT22;6915;48.296;8.874;2022-09-13T09:17:50;25.30;99.90
13686;DHT22;6915;48.296;8.874;2022-09-13T09:20:26;25.50;1.00
13686;DHT22;6915;48.296;8.874;2022-09-13T09:22:59;25.70;99.90
13686;DHT22;6915;48.296;8.874;2022-09-13T09:25:26;25.90;99.90
13686;DHT22;6915;48.296;8.874;2022-09-13T09:27:55;26.00;99.90
13686;DHT22;6915;48.296;8.874;2022-09-13T09:30:32;26.10;99.90
13686;DHT22;6915;48.296;8.874;2022-09-13T09:33:17;26.10;99.90
13686;DHT22;6915;48.296;8.874;2022-09-13T09:35:53;26.20;99.90
13686;DHT22;6915;48.296;8.874;2022-09-13T09:38:36;26.10;99.90
13686;DHT22;6915;48.296;8.874;2022-09-13T09:41:09;26.20;99.90
13686;DHT22;6915;48.296;8.874;2022-09-13T09:43:43;26.40;96.10
13686;DHT22;6915;48.296;8.874;2022-09-13T09:46:13;26.60;99.90
13686;DHT22;6915;48.296;8.874;2022-09-13T09:48:47;26.80;99.90
13686;DHT22;6915;48.296;8.874;2022-09-13T09:51:18;27.00;99.90
13686;DHT22;6915;48.296;8.874;2022-09-13T09:53:48;27.10;99.90
13686;DHT22;6915;48.296;8.874;2022-09-13T09:56:23;27.30;79.70
13686;DHT22;6915;48.296;8.874;2022-09-13T09:58:53;27.40;37.10
13686;DHT22;6915;48.296;8.874;2022-09-13T10:01:25;27.30;17.00
13686;DHT22;6915;48.296;8.874;2022-09-13T10:04:17;27.30;94.10
13686;DHT22;6915;48.296;8.874;2022-09-13T10:06:46;27.30;48.90
13686;DHT22;6915;48.296;8.874;2022-09-13T10:09:16;27.20;15.80
13686;DHT22;6915;48.296;8.874;2022-09-13T10:11:47;27.20;13.60
13686;DHT22;6915;48.296;8.874;2022-09-13T10:14:36;27.20;31.00
13686;DHT22;6915;48.296;8.874;2022-09-13T10:17:16;27.30;13.90
13686;DHT22;6915;48.296;8.874;2022-09-13T10:19:54;27.20;1.00
13686;DHT22;6915;48.296;8.874;2022-09-13T10:22:24;27.20;1.00
13686;DHT22;6915;48.296;8.874;2022-09-13T10:24:51;27.00;1.00
13686;DHT22;6915;48.296;8.874;2022-09-13T10:27:27;27.10;1.00
13686;DHT22;6915;48.296;8.874;2022-09-13T10:29:59;27.10;1.00
13686;DHT22;6915;48.296;8.874;2022-09-13T10:32:29;27.10;1.00
13686;DHT22;6915;48.296;8.874;2022-09-13T10:35:01;27.10;1.00
13686;DHT22;6915;48.296;8.874;2022-09-13T10:37:46;27.20;1.00
13686;DHT22;6915;48.296;8.874;2022-09-13T10:40:19;27.40;7.20
13686;DHT22;6915;48.296;8.874;2022-09-13T10:42:52;27.60;1.00
13686;DHT22;6915;48.296;8.874;2022-09-13T10:45:23;27.80;1.00
13686;DHT22;6915;48.296;8.874;2022-09-13T10:47:52;28.00;1.00
13686;DHT22;6915;48.296;8.874;2022-09-13T10:50:22;28.10;1.00
13686;DHT22;6915;48.296;8.874;2022-09-13T10:52:51;28.30;1.00
13686;DHT22;6915;48.296;8.874;2022-09-13T10:55:26;28.40;1.00
13686;DHT22;6915;48.296;8.874;2022-09-13T10:57:55;28.40;1.00
13686;DHT22;6915;48.296;8.874;2022-09-13T11:00:25;28.40;1.00
13686;DHT22;6915;48.296;8.874;2022-09-13T11:03:11;28.50;1.00
13686;DHT22;6915;48.296;8.874;2022-09-13T11:05:44;28.70;1.00
13686;DHT22;6915;48.296;8.874;2022-09-13T11:08:28;29.00;1.00
13686;DHT22;6915;48.296;8.874;2022-09-13T11:11:09;29.10;1.00
13686;DHT22;6915;48.296;8.874;2022-09-13T11:13:49;29.10;1.00
13686;DHT22;6915;48.296;8.874;2022-09-13T11:16:31;28.90;1.00
13686;DHT22;6915;48.296;8.874;2022-09-13T11:19:12;29.00;1.00
13686;DHT22;6915;48.296;8.874;2022-09-13T11:21:51;29.10;1.00
13686;DHT22;6915;48.296;8.874;2022-09-13T11:24:34;29.40;1.00
13686;DHT22;6915;48.296;8.874;2022-09-13T11:27:14;29.30;1.00
13686;DHT22;6915;48.296;8.874;2022-09-13T11:30:00;29.10;1.00
13686;DHT22;6915;48.296;8.874;2022-09-13T11:32:48;29.00;1.00
13686;DHT22;6915;48.296;8.874;2022-09-13T11:35:33;28.80;1.00
13686;DHT22;6915;48.296;8.874;2022-09-13T11:38:09;29.00;1.00
13686;DHT22;6915;48.296;8.874;2022-09-13T11:40:48;29.00;1.00
13686;DHT22;6915;48.296;8.874;2022-09-13T11:43:39;29.00;1.00
13686;DHT22;6915;48.296;8.874;2022-09-13T11:46:13;29.10;1.00
13686;DHT22;6915;48.296;8.874;2022-09-13T11:48:59;29.30;1.00
13686;DHT22;6915;48.296;8.874;2022-09-13T11:51:37;29.10;1.00
13686;DHT22;6915;48.296;8.874;2022-09-13T11:54:20;28.70;1.00
13686;DHT22;6915;48.296;8.874;2022-09-13T11:56:54;28.50;1.00
13686;DHT22;6915;48.296;8.874;2022-09-13T11:59:31;28.40;1.00
13686;DHT22;6915;48.296;8.874;2022-09-13T12:02:13;28.10;1.00
13686;DHT22;6915;48.296;8.874;2022-09-13T12:04:49;28.20;1.00
13686;DHT22;6915;48.296;8.874;2022-09-13T12:07:34;28.30;1.00
13686;DHT22;6915;48.296;8.874;2022-09-13T12:10:06;28.40;1.00
13686;DHT22;6915;48.296;8.874;2022-09-13T12:12:41;28.30;1.00
13686;DHT22;6915;48.296;8.874;2022-09-13T12:15:14;28.00;1.00
13686;DHT22;6915;48.296;8.874;2022-09-13T12:17:44;28.00;1.00
13686;DHT22;6915;48.296;8.874;2022-09-13T12:20:16;28.10;1.00
13686;DHT22;6915;48.296;8.874;2022-09-13T12:22:46;28.20;1.00
13686;DHT22;6915;48.296;8.874;2022-09-13T12:25:19;28.30;1.00
13686;DHT22;6915;48.296;8.874;2022-09-13T12:27:54;28.10;1.00
13686;DHT22;6915;48.296;8.874;2022-09-13T12:30:25;27.90;1.00
13686;DHT22;6915;48.296;8.874;2022-09-13T12:32:54;27.90;1.00
13686;DHT22;6915;48.296;8.874;2022-09-13T12:35:25;27.90;1.00
13686;DHT22;6915;48.296;8.874;2022-09-13T12:38:11;27.90;1.00
13686;DHT22;6915;48.296;8.874;2022-09-13T12:43:59;27.60;1.00
13686;DHT22;6915;48.296;8.874;2022-09-13T12:46:43;27.70;1.00
13686;DHT22;6915;48.296;8.874;2022-09-13T12:49:29;27.70;1.00
13686;DHT22;6915;48.296;8.874;2022-09-13T12:52:20;27.60;1.00
13686;DHT22;6915;48.296;8.874;2022-09-13T12:55:05;27.80;1.00
13686;DHT22;6915;48.296;8.874;2022-09-13T12:57:41;28.00;1.00
13686;DHT22;6915;48.296;8.874;2022-09-13T13:00:18;28.10;1.00
13686;DHT22;6915;48.296;8.874;2022-09-13T13:02:52;28.20;1.00
13686;DHT22;6915;48.296;8.874;2022-09-13T13:05:26;28.20;1.00
13686;DHT22;6915;48.296;8.874;2022-09-13T13:07:57;28.20;1.00
13686;DHT22;6915;48.296;8.874;2022-09-13T13:10:28;28.20;1.00
13686;DHT22;6915;48.296;8.874;2022-09-13T13:13:10;27.90;1.00
13686;DHT22;6915;48.296;8.874;2022-09-13T13:16:00;27.70;1.00
13686;DHT22;6915;48.296;8.874;2022-09-13T13:18:30;27.60;1.00
13686;DHT22;6915;48.296;8.874;2022-09-13T13:21:35;27.50;1.00
13686;DHT22;6915;48.296;8.874;2022-09-13T13:27:33;27.70;1.00
13686;DHT22;6915;48.296;8.874;2022-09-13T13:30:39;27.60;1.00
13686;DHT22;6915;48.296;8.874;2022-09-13T13:33:19;27.80;1.00
13686;DHT22;6915;48.296;8.874;2022-09-13T13:35:46;27.90;1.00
13686;DHT22;6915;48.296;8.874;2022-09-13T13:38:41;27.90;1.00
13686;DHT22;6915;48.296;8.874;2022-09-13T13:53:40;27.90;1.00
13686;DHT22;6915;48.296;8.874;2022-09-13T13:56:18;27.90;50.80
13686;DHT22;6915;48.296;8.874;2022-09-13T13:58:49;27.70;1.00
13686;DHT22;6915;48.296;8.874;2022-09-13T14:01:21;27.70;14.20
13686;DHT22;6915;48.296;8.874;2022-09-13T14:03:58;27.60;1.00
13686;DHT22;6915;48.296;8.874;2022-09-13T14:06:33;27.50;1.00
13686;DHT22;6915;48.296;8.874;2022-09-13T14:09:11;27.70;1.00
13686;DHT22;6915;48.296;8.874;2022-09-13T14:11:50;27.70;1.00
13686;DHT22;6915;48.296;8.874;2022-09-13T14:14:31;27.60;1.00
13686;DHT22;6915;48.296;8.874;2022-09-13T14:17:25;27.60;1.00
13686;DHT22;6915;48.296;8.874;2022-09-13T14:19:59;27.70;1.00
13686;DHT22;6915;48.296;8.874;2022-09-13T14:22:29;28.00;1.00
13686;DHT22;6915;48.296;8.874;2022-09-13T14:25:11;28.10;1.00
13686;DHT22;6915;48.296;8.874;2022-09-13T14:27:41;28.20;1.00
13686;DHT22;6915;48.296;8.874;2022-09-13T14:30:18;28.20;1.00
13686;DHT22;6915;48.296;8.874;2022-09-13T14:32:48;28.10;1.00
13686;DHT22;6915;48.296;8.874;2022-09-13T14:35:25;28.10;1.00
13686;DHT22;6915;48.296;8.874;2022-09-13T14:37:53;28.30;32.50
13686;DHT22;6915;48.296;8.874;2022-09-13T14:40:24;28.30;1.00
13686;DHT22;6915;48.296;8.874;2022-09-13T14:42:54;28.50;1.00
13686;DHT22;6915;48.296;8.874;2022-09-13T14:45:23;28.50;1.00
13686;DHT22;6915;48.296;8.874;2022-09-13T14:47:55;28.60;1.00
13686;DHT22;6915;48.296;8.874;2022-09-13T14:50:24;28.40;1.00
13686;DHT22;6915;48.296;8.874;2022-09-13T14:52:54;28.30;1.00
13686;DHT22;6915;48.296;8.874;2022-09-13T14:55:26;28.30;1.00
13686;DHT22;6915;48.296;8.874;2022-09-13T14:57:57;28.30;1.00
13686;DHT22;6915;48.296;8.874;2022-09-13T15:00:29;28.40;77.40
13686;DHT22;6915;48.296;8.874;2022-09-13T15:02:58;28.30;1.00
13686;DHT22;6915;48.296;8.874;2022-09-13T15:05:36;28.10;1.00
13686;DHT22;6915;48.296;8.874;2022-09-13T15:08:39;28.30;1.00
13686;DHT22;6915;48.296;8.874;2022-09-13T15:11:14;28.60;1.00
13686;DHT22;6915;48.296;8.874;2022-09-13T15:13:42;28.60;1.00
13686;DHT22;6915;48.296;8.874;2022-09-13T15:16:24;28.50;1.00
13686;DHT22;6915;48.296;8.874;2022-09-13T15:19:16;28.50;18.80
13686;DHT22;6915;48.296;8.874;2022-09-13T15:21:43;28.90;1.00
13686;DHT22;6915;48.296;8.874;2022-09-13T15:24:19;29.00;1.00
13686;DHT22;6915;48.296;8.874;2022-09-13T15:26:48;29.20;1.00
13686;DHT22;6915;48.296;8.874;2022-09-13T15:29:26;29.10;1.00
13686;DHT22;6915;48.296;8.874;2022-09-13T15:31:58;28.80;30.00
13686;DHT22;6915;48.296;8.874;2022-09-13T15:34:25;28.80;1.00
13686;DHT22;6915;48.296;8.874;2022-09-13T15:37:07;28.70;63.30
13686;DHT22;6915;48.296;8.874;2022-09-13T15:39:44;28.60;1.00
13686;DHT22;6915;48.296;8.874;2022-09-13T15:42:13;28.40;66.10
13686;DHT22;6915;48.296;8.874;2022-09-13T15:44:41;27.90;99.90
13686;DHT22;6915;48.296;8.874;2022-09-13T15:47:09;27.60;99.90
13686;DHT22;6915;48.296;8.874;2022-09-13T15:49:38;27.40;99.90
13686;DHT22;6915;48.296;8.874;2022-09-13T15:52:05;27.10;99.90
13686;DHT22;6915;48.296;8.874;2022-09-13T15:54:34;27.00;99.90
13686;DHT22;6915;48.296;8.874;2022-09-13T15:57:06;26.90;99.90
13686;DHT22;6915;48.296;8.874;2022-09-13T15:59:35;26.70;99.90
13686;DHT22;6915;48.296;8.874;2022-09-13T16:02:17;26.60;99.90
13686;DHT22;6915;48.296;8.874;2022-09-13T16:04:45;26.50;99.90
13686;DHT22;6915;48.296;8.874;2022-09-13T16:07:12;26.50;1.00
13686;DHT22;6915;48.296;8.874;2022-09-13T16:09:39;26.50;1.00
13686;DHT22;6915;48.296;8.874;2022-09-13T16:12:06;26.50;1.00
13686;DHT22;6915;48.296;8.874;2022-09-13T16:14:35;26.60;1.00
13686;DHT22;6915;48.296;8.874;2022-09-13T16:17:05;26.50;1.00
13686;DHT22;6915;48.296;8.874;2022-09-13T16:19:32;26.40;1.00
13686;DHT22;6915;48.296;8.874;2022-09-13T16:21:59;26.30;1.00
13686;DHT22;6915;48.296;8.874;2022-09-13T16:24:26;26.10;1.00
13686;DHT22;6915;48.296;8.874;2022-09-13T16:26:53;26.00;1.00
13686;DHT22;6915;48.296;8.874;2022-09-13T16:29:20;26.00;1.00
13686;DHT22;6915;48.296;8.874;2022-09-13T16:31:49;25.90;16.00
13686;DHT22;6915;48.296;8.874;2022-09-13T16:34:16;25.70;99.90
13686;DHT22;6915;48.296;8.874;2022-09-13T16:36:43;25.50;99.90
13686;DHT22;6915;48.296;8.874;2022-09-13T16:39:10;25.50;1.00
13686;DHT22;6915;48.296;8.874;2022-09-13T16:41:38;25.50;1.00
13686;DHT22;6915;48.296;8.874;2022-09-13T16:44:05;25.60;1.00
13686;DHT22;6915;48.296;8.874;2022-09-13T16:46:33;25.60;1.00
13686;DHT22;6915;48.296;8.874;2022-09-13T16:49:02;25.60;1.00
13686;DHT22;6915;48.296;8.874;2022-09-13T16:51:29;25.60;1.00